Aviation weather information 2023-02-05 05:22 UTC

TAF(FTEO31)
FTEO31 EETN 042300
TAF EETN 042330Z 0500/0524 VRB02KT CAVOK PROB40 TEMPO 0500/0505
     3000 BR SCT003 BECMG 0506/0508 22012KT PROB40 TEMPO 0511/0517
     25018G30KT TEMPO 0512/0515 BKN014 TEMPO 0515/0520 2000 SHSN
     BKN010 SCT015CB BECMG 0517/0519 28015KT=

TAF(FTEO33)
FTEO33 EEEI 042300
TAF EEEI 042330Z 0500/0524 VRB02KT CAVOK BECMG 0502/0504 25008KT
     TEMPO 0512/0516 23014G24KT BKN020 TEMPO 0515/0520 4000 SHSNRA
     BKN010 FEW015TCU= 

Weather observation (METAR/SPECI)
METAR EETN 050520Z 21004KT CAVOK M10/M11 Q1033 NOSIG=
METAR EEEI 050450Z 21004KT CAVOK M12/M13 Q1033 NOSIG=
METAR EETU 050520Z AUTO 28004KT 240V320 9999 OVC005/// M07/M09
Q1033=
METAR EEPU 050520Z AUTO 22002KT 9999 NCD M10/M11 Q1034=
METAR EEKE 050520Z AUTO 29002KT 9999NDV NCD M12/M13 Q1035=
METAR EEKA 050450Z NIL=